sensor_id;sensor_type;location;lat;lon;timestamp;temperature;humidity
2935;DHT22;2462;51.456;7.248;2024-03-07T00:00:14;13.80;99.00
2935;DHT22;2462;51.456;7.248;2024-03-07T00:02:59;13.80;98.90
2935;DHT22;2462;51.456;7.248;2024-03-07T00:05:25;13.80;98.90
2935;DHT22;2462;51.456;7.248;2024-03-07T00:07:52;13.80;98.90
2935;DHT22;2462;51.456;7.248;2024-03-07T00:10:17;13.80;98.80
2935;DHT22;2462;51.456;7.248;2024-03-07T00:12:43;13.80;98.80
2935;DHT22;2462;51.456;7.248;2024-03-07T00:15:11;13.80;98.80
2935;DHT22;2462;51.456;7.248;2024-03-07T00:17:38;13.80;98.70
2935;DHT22;2462;51.456;7.248;2024-03-07T00:20:04;13.80;98.70
2935;DHT22;2462;51.456;7.248;2024-03-07T00:22:34;13.90;98.80
2935;DHT22;2462;51.456;7.248;2024-03-07T00:24:59;13.80;98.70
2935;DHT22;2462;51.456;7.248;2024-03-07T00:27:25;13.80;98.70
2935;DHT22;2462;51.456;7.248;2024-03-07T00:29:51;13.80;98.70
2935;DHT22;2462;51.456;7.248;2024-03-07T00:32:20;13.80;98.60
2935;DHT22;2462;51.456;7.248;2024-03-07T00:34:47;13.80;98.60
2935;DHT22;2462;51.456;7.248;2024-03-07T00:37:12;13.80;98.70
2935;DHT22;2462;51.456;7.248;2024-03-07T00:39:38;13.70;98.60
2935;DHT22;2462;51.456;7.248;2024-03-07T00:42:04;13.70;98.70
2935;DHT22;2462;51.456;7.248;2024-03-07T00:44:29;13.70;98.60
2935;DHT22;2462;51.456;7.248;2024-03-07T00:46:56;13.60;98.70
2935;DHT22;2462;51.456;7.248;2024-03-07T00:49:22;13.60;98.70
2935;DHT22;2462;51.456;7.248;2024-03-07T00:51:48;13.60;98.80
2935;DHT22;2462;51.456;7.248;2024-03-07T00:54:13;13.60;98.80
2935;DHT22;2462;51.456;7.248;2024-03-07T00:56:39;13.60;98.70
2935;DHT22;2462;51.456;7.248;2024-03-07T00:59:05;13.60;98.70
2935;DHT22;2462;51.456;7.248;2024-03-07T01:01:31;13.60;98.70
2935;DHT22;2462;51.456;7.248;2024-03-07T01:03:59;13.70;98.60
2935;DHT22;2462;51.456;7.248;2024-03-07T01:06:25;13.70;98.60
2935;DHT22;2462;51.456;7.248;2024-03-07T01:08:51;13.70;98.60
2935;DHT22;2462;51.456;7.248;2024-03-07T01:11:17;13.70;98.50
2935;DHT22;2462;51.456;7.248;2024-03-07T01:13:43;13.70;98.40
2935;DHT22;2462;51.456;7.248;2024-03-07T01:16:09;13.70;98.50
2935;DHT22;2462;51.456;7.248;2024-03-07T01:18:35;13.60;98.50
2935;DHT22;2462;51.456;7.248;2024-03-07T01:21:01;13.60;98.50
2935;DHT22;2462;51.456;7.248;2024-03-07T01:23:27;13.60;98.60
2935;DHT22;2462;51.456;7.248;2024-03-07T01:25:56;13.60;98.60
2935;DHT22;2462;51.456;7.248;2024-03-07T01:28:23;13.60;98.50
2935;DHT22;2462;51.456;7.248;2024-03-07T01:30:49;13.60;98.50
2935;DHT22;2462;51.456;7.248;2024-03-07T01:33:15;13.60;98.50
2935;DHT22;2462;51.456;7.248;2024-03-07T01:35:41;13.60;98.40
2935;DHT22;2462;51.456;7.248;2024-03-07T01:38:06;13.60;98.40
2935;DHT22;2462;51.456;7.248;2024-03-07T01:40:34;13.60;98.30
2935;DHT22;2462;51.456;7.248;2024-03-07T01:43:01;13.60;98.40
2935;DHT22;2462;51.456;7.248;2024-03-07T01:45:27;13.60;98.30
2935;DHT22;2462;51.456;7.248;2024-03-07T01:47:53;13.60;98.30
2935;DHT22;2462;51.456;7.248;2024-03-07T01:50:21;13.60;98.20
2935;DHT22;2462;51.456;7.248;2024-03-07T01:52:46;13.60;98.30
2935;DHT22;2462;51.456;7.248;2024-03-07T01:55:12;13.60;98.30
2935;DHT22;2462;51.456;7.248;2024-03-07T01:57:39;13.60;98.10
2935;DHT22;2462;51.456;7.248;2024-03-07T02:00:06;13.60;98.20
2935;DHT22;2462;51.456;7.248;2024-03-07T02:02:32;13.60;98.20
2935;DHT22;2462;51.456;7.248;2024-03-07T02:04:58;13.60;98.20
2935;DHT22;2462;51.456;7.248;2024-03-07T02:07:24;14.10;98.80
2935;DHT22;2462;51.456;7.248;2024-03-07T02:09:49;13.50;98.20
2935;DHT22;2462;51.456;7.248;2024-03-07T02:12:15;13.50;98.30
2935;DHT22;2462;51.456;7.248;2024-03-07T02:14:40;13.50;98.30
2935;DHT22;2462;51.456;7.248;2024-03-07T02:17:06;13.50;98.30
2935;DHT22;2462;51.456;7.248;2024-03-07T02:19:32;13.50;98.20
2935;DHT22;2462;51.456;7.248;2024-03-07T02:21:58;13.50;98.20
2935;DHT22;2462;51.456;7.248;2024-03-07T02:24:25;13.50;98.40
2935;DHT22;2462;51.456;7.248;2024-03-07T02:26:50;13.50;98.10
2935;DHT22;2462;51.456;7.248;2024-03-07T02:29:16;13.50;98.10
2935;DHT22;2462;51.456;7.248;2024-03-07T02:31:41;13.50;98.10
2935;DHT22;2462;51.456;7.248;2024-03-07T02:34:07;13.50;98.10
2935;DHT22;2462;51.456;7.248;2024-03-07T02:36:33;13.50;98.00
2935;DHT22;2462;51.456;7.248;2024-03-07T02:38:59;13.50;98.00
2935;DHT22;2462;51.456;7.248;2024-03-07T02:41:25;13.40;98.60
2935;DHT22;2462;51.456;7.248;2024-03-07T02:43:51;13.50;98.00
2935;DHT22;2462;51.456;7.248;2024-03-07T02:46:17;13.50;99.90
2935;DHT22;2462;51.456;7.248;2024-03-07T02:48:42;13.50;99.90
2935;DHT22;2462;51.456;7.248;2024-03-07T02:51:08;13.40;98.10
2935;DHT22;2462;51.456;7.248;2024-03-07T02:53:33;13.40;98.10
2935;DHT22;2462;51.456;7.248;2024-03-07T02:56:00;13.40;98.10
2935;DHT22;2462;51.456;7.248;2024-03-07T03:00:58;13.40;97.90
2935;DHT22;2462;51.456;7.248;2024-03-07T03:03:28;13.40;98.10
2935;DHT22;2462;51.456;7.248;2024-03-07T03:05:56;13.50;98.20
2935;DHT22;2462;51.456;7.248;2024-03-07T03:08:22;13.50;98.20
2935;DHT22;2462;51.456;7.248;2024-03-07T03:10:49;13.50;98.10
2935;DHT22;2462;51.456;7.248;2024-03-07T03:13:16;13.50;98.20
2935;DHT22;2462;51.456;7.248;2024-03-07T03:15:42;13.40;98.10
2935;DHT22;2462;51.456;7.248;2024-03-07T03:18:08;13.50;98.10
2935;DHT22;2462;51.456;7.248;2024-03-07T03:20:35;13.50;98.20
2935;DHT22;2462;51.456;7.248;2024-03-07T03:23:06;13.50;98.20
2935;DHT22;2462;51.456;7.248;2024-03-07T03:25:36;13.50;98.10
2935;DHT22;2462;51.456;7.248;2024-03-07T03:28:05;13.50;98.10
2935;DHT22;2462;51.456;7.248;2024-03-07T03:30:31;13.40;98.20
2935;DHT22;2462;51.456;7.248;2024-03-07T03:32:58;13.50;98.20
2935;DHT22;2462;51.456;7.248;2024-03-07T03:35:24;13.40;98.20
2935;DHT22;2462;51.456;7.248;2024-03-07T03:37:49;13.40;98.30
2935;DHT22;2462;51.456;7.248;2024-03-07T03:40:15;13.40;98.20
2935;DHT22;2462;51.456;7.248;2024-03-07T03:42:42;13.40;98.20
2935;DHT22;2462;51.456;7.248;2024-03-07T03:45:09;13.40;98.30
2935;DHT22;2462;51.456;7.248;2024-03-07T03:47:39;13.40;98.30
2935;DHT22;2462;51.456;7.248;2024-03-07T03:50:06;13.40;98.30
2935;DHT22;2462;51.456;7.248;2024-03-07T03:52:32;13.40;98.30
2935;DHT22;2462;51.456;7.248;2024-03-07T03:54:58;13.40;98.20
2935;DHT22;2462;51.456;7.248;2024-03-07T03:57:25;13.40;98.30
2935;DHT22;2462;51.456;7.248;2024-03-07T03:59:51;13.40;98.30
2935;DHT22;2462;51.456;7.248;2024-03-07T04:02:16;13.30;98.30
2935;DHT22;2462;51.456;7.248;2024-03-07T04:04:42;13.30;98.40
2935;DHT22;2462;51.456;7.248;2024-03-07T04:07:08;13.30;98.30
2935;DHT22;2462;51.456;7.248;2024-03-07T04:09:33;13.30;98.30
2935;DHT22;2462;51.456;7.248;2024-03-07T04:11:59;13.30;98.30
2935;DHT22;2462;51.456;7.248;2024-03-07T04:14:25;13.40;98.30
2935;DHT22;2462;51.456;7.248;2024-03-07T04:16:51;13.40;98.20
2935;DHT22;2462;51.456;7.248;2024-03-07T04:19:17;13.40;98.10
2935;DHT22;2462;51.456;7.248;2024-03-07T04:21:45;13.40;98.10
2935;DHT22;2462;51.456;7.248;2024-03-07T04:24:11;13.40;98.10
2935;DHT22;2462;51.456;7.248;2024-03-07T04:26:37;13.40;98.00
2935;DHT22;2462;51.456;7.248;2024-03-07T04:29:03;13.40;98.00
2935;DHT22;2462;51.456;7.248;2024-03-07T04:31:28;13.40;97.90
2935;DHT22;2462;51.456;7.248;2024-03-07T04:33:54;13.40;98.00
2935;DHT22;2462;51.456;7.248;2024-03-07T04:36:19;13.40;97.90
2935;DHT22;2462;51.456;7.248;2024-03-07T04:38:45;13.50;97.90
2935;DHT22;2462;51.456;7.248;2024-03-07T04:41:11;13.50;97.90
2935;DHT22;2462;51.456;7.248;2024-03-07T04:43:37;13.50;97.80
2935;DHT22;2462;51.456;7.248;2024-03-07T04:46:02;13.50;97.80
2935;DHT22;2462;51.456;7.248;2024-03-07T04:48:28;13.50;97.80
2935;DHT22;2462;51.456;7.248;2024-03-07T04:50:53;13.50;97.80
2935;DHT22;2462;51.456;7.248;2024-03-07T04:53:19;13.40;97.70
2935;DHT22;2462;51.456;7.248;2024-03-07T04:55:45;13.40;97.70
2935;DHT22;2462;51.456;7.248;2024-03-07T04:58:10;13.40;97.70
2935;DHT22;2462;51.456;7.248;2024-03-07T05:00:36;13.30;97.70
2935;DHT22;2462;51.456;7.248;2024-03-07T05:03:01;13.30;97.70
2935;DHT22;2462;51.456;7.248;2024-03-07T05:05:27;13.30;97.70
2935;DHT22;2462;51.456;7.248;2024-03-07T05:07:53;13.30;97.60
2935;DHT22;2462;51.456;7.248;2024-03-07T05:10:19;13.20;97.50
2935;DHT22;2462;51.456;7.248;2024-03-07T05:12:45;13.20;97.60
2935;DHT22;2462;51.456;7.248;2024-03-07T05:15:11;13.20;97.60
2935;DHT22;2462;51.456;7.248;2024-03-07T05:17:36;13.20;97.50
2935;DHT22;2462;51.456;7.248;2024-03-07T05:20:07;13.20;97.60
2935;DHT22;2462;51.456;7.248;2024-03-07T05:22:36;13.10;97.50
2935;DHT22;2462;51.456;7.248;2024-03-07T05:25:06;13.10;97.60
2935;DHT22;2462;51.456;7.248;2024-03-07T05:27:31;13.10;97.50
2935;DHT22;2462;51.456;7.248;2024-03-07T05:29:58;13.10;97.50
2935;DHT22;2462;51.456;7.248;2024-03-07T05:32:25;13.10;97.50
2935;DHT22;2462;51.456;7.248;2024-03-07T05:34:52;13.10;97.40
2935;DHT22;2462;51.456;7.248;2024-03-07T05:37:21;13.10;97.50
2935;DHT22;2462;51.456;7.248;2024-03-07T05:39:50;13.10;97.40
2935;DHT22;2462;51.456;7.248;2024-03-07T05:42:16;13.20;97.50
2935;DHT22;2462;51.456;7.248;2024-03-07T05:44:43;13.20;97.40
2935;DHT22;2462;51.456;7.248;2024-03-07T05:47:09;13.20;97.30
2935;DHT22;2462;51.456;7.248;2024-03-07T05:49:36;13.20;97.30
2935;DHT22;2462;51.456;7.248;2024-03-07T05:52:03;13.20;97.20
2935;DHT22;2462;51.456;7.248;2024-03-07T05:54:28;13.20;97.30
2935;DHT22;2462;51.456;7.248;2024-03-07T05:56:55;13.20;97.30
2935;DHT22;2462;51.456;7.248;2024-03-07T05:59:21;13.20;97.20
2935;DHT22;2462;51.456;7.248;2024-03-07T06:01:48;13.10;97.20
2935;DHT22;2462;51.456;7.248;2024-03-07T06:04:14;13.10;97.10
2935;DHT22;2462;51.456;7.248;2024-03-07T06:06:41;13.10;97.20
2935;DHT22;2462;51.456;7.248;2024-03-07T06:09:09;13.10;97.20
2935;DHT22;2462;51.456;7.248;2024-03-07T06:11:38;13.10;97.20
2935;DHT22;2462;51.456;7.248;2024-03-07T06:14:05;13.10;97.10
2935;DHT22;2462;51.456;7.248;2024-03-07T06:16:40;13.10;97.10
2935;DHT22;2462;51.456;7.248;2024-03-07T06:19:07;13.00;97.10
2935;DHT22;2462;51.456;7.248;2024-03-07T06:21:34;12.90;97.10
2935;DHT22;2462;51.456;7.248;2024-03-07T06:24:00;13.00;97.10
2935;DHT22;2462;51.456;7.248;2024-03-07T06:26:31;13.00;97.00
2935;DHT22;2462;51.456;7.248;2024-03-07T06:29:09;13.00;97.00
2935;DHT22;2462;51.456;7.248;2024-03-07T06:31:36;13.00;97.00
2935;DHT22;2462;51.456;7.248;2024-03-07T06:34:02;13.00;97.10
2935;DHT22;2462;51.456;7.248;2024-03-07T06:36:28;13.00;97.10
2935;DHT22;2462;51.456;7.248;2024-03-07T06:38:54;13.00;97.10
2935;DHT22;2462;51.456;7.248;2024-03-07T06:41:19;13.10;97.00
2935;DHT22;2462;51.456;7.248;2024-03-07T06:43:45;13.20;97.00
2935;DHT22;2462;51.456;7.248;2024-03-07T06:46:11;13.20;97.00
2935;DHT22;2462;51.456;7.248;2024-03-07T06:48:38;13.30;97.00
2935;DHT22;2462;51.456;7.248;2024-03-07T06:51:05;13.30;96.90
2935;DHT22;2462;51.456;7.248;2024-03-07T06:53:33;13.40;96.80
2935;DHT22;2462;51.456;7.248;2024-03-07T06:55:58;13.30;96.70
2935;DHT22;2462;51.456;7.248;2024-03-07T06:58:24;13.30;97.00
2935;DHT22;2462;51.456;7.248;2024-03-07T07:00:49;13.30;97.00
2935;DHT22;2462;51.456;7.248;2024-03-07T07:03:19;13.30;97.00
2935;DHT22;2462;51.456;7.248;2024-03-07T07:05:46;13.30;97.10
2935;DHT22;2462;51.456;7.248;2024-03-07T07:08:11;13.30;97.00
2935;DHT22;2462;51.456;7.248;2024-03-07T07:10:39;13.30;97.00
2935;DHT22;2462;51.456;7.248;2024-03-07T07:13:06;13.30;97.00
2935;DHT22;2462;51.456;7.248;2024-03-07T07:15:33;13.30;97.00
2935;DHT22;2462;51.456;7.248;2024-03-07T07:17:59;13.30;97.10
2935;DHT22;2462;51.456;7.248;2024-03-07T07:20:27;13.30;97.10
2935;DHT22;2462;51.456;7.248;2024-03-07T07:22:53;13.30;97.10
2935;DHT22;2462;51.456;7.248;2024-03-07T07:25:19;13.30;97.20
2935;DHT22;2462;51.456;7.248;2024-03-07T07:27:48;13.40;97.20
2935;DHT22;2462;51.456;7.248;2024-03-07T07:30:23;13.40;97.20
2935;DHT22;2462;51.456;7.248;2024-03-07T07:32:49;13.40;97.10
2935;DHT22;2462;51.456;7.248;2024-03-07T07:35:15;13.40;97.10
2935;DHT22;2462;51.456;7.248;2024-03-07T07:37:42;13.50;97.10
2935;DHT22;2462;51.456;7.248;2024-03-07T07:40:10;13.50;97.10
2935;DHT22;2462;51.456;7.248;2024-03-07T07:42:40;13.50;97.10
2935;DHT22;2462;51.456;7.248;2024-03-07T07:45:08;13.50;97.10
2935;DHT22;2462;51.456;7.248;2024-03-07T07:47:49;13.50;97.20
2935;DHT22;2462;51.456;7.248;2024-03-07T07:50:17;13.50;97.30
2935;DHT22;2462;51.456;7.248;2024-03-07T07:52:45;13.50;97.30
2935;DHT22;2462;51.456;7.248;2024-03-07T07:55:13;13.50;97.30
2935;DHT22;2462;51.456;7.248;2024-03-07T07:57:41;13.50;97.20
2935;DHT22;2462;51.456;7.248;2024-03-07T08:00:08;13.50;97.30
2935;DHT22;2462;51.456;7.248;2024-03-07T08:02:35;13.50;97.30
2935;DHT22;2462;51.456;7.248;2024-03-07T08:05:00;13.50;97.40
2935;DHT22;2462;51.456;7.248;2024-03-07T08:07:26;13.60;97.50
2935;DHT22;2462;51.456;7.248;2024-03-07T08:09:52;13.60;97.50
2935;DHT22;2462;51.456;7.248;2024-03-07T08:12:17;13.60;97.50
2935;DHT22;2462;51.456;7.248;2024-03-07T08:14:43;13.60;97.50
2935;DHT22;2462;51.456;7.248;2024-03-07T08:17:11;13.70;97.60
2935;DHT22;2462;51.456;7.248;2024-03-07T08:19:37;13.70;97.50
2935;DHT22;2462;51.456;7.248;2024-03-07T08:22:02;13.70;97.60
2935;DHT22;2462;51.456;7.248;2024-03-07T08:24:28;13.80;97.70
2935;DHT22;2462;51.456;7.248;2024-03-07T08:26:53;13.80;97.70
2935;DHT22;2462;51.456;7.248;2024-03-07T08:29:19;13.80;97.80
2935;DHT22;2462;51.456;7.248;2024-03-07T08:31:44;13.90;97.80
2935;DHT22;2462;51.456;7.248;2024-03-07T08:34:10;13.90;97.80
2935;DHT22;2462;51.456;7.248;2024-03-07T08:36:35;14.00;97.80
2935;DHT22;2462;51.456;7.248;2024-03-07T08:39:02;14.00;97.80
2935;DHT22;2462;51.456;7.248;2024-03-07T08:41:29;14.10;98.20
2935;DHT22;2462;51.456;7.248;2024-03-07T08:43:58;14.10;97.90
2935;DHT22;2462;51.456;7.248;2024-03-07T08:46:23;14.20;97.90
2935;DHT22;2462;51.456;7.248;2024-03-07T08:48:50;14.20;98.00
2935;DHT22;2462;51.456;7.248;2024-03-07T08:51:17;14.20;98.10
2935;DHT22;2462;51.456;7.248;2024-03-07T08:53:43;14.30;98.20
2935;DHT22;2462;51.456;7.248;2024-03-07T08:56:08;14.40;98.10
2935;DHT22;2462;51.456;7.248;2024-03-07T08:58:34;14.40;98.10
2935;DHT22;2462;51.456;7.248;2024-03-07T09:00:59;14.50;98.20
2935;DHT22;2462;51.456;7.248;2024-03-07T09:03:25;14.40;98.20
2935;DHT22;2462;51.456;7.248;2024-03-07T09:05:51;14.50;98.40
2935;DHT22;2462;51.456;7.248;2024-03-07T09:08:17;14.50;98.40
2935;DHT22;2462;51.456;7.248;2024-03-07T09:10:43;14.60;98.50
2935;DHT22;2462;51.456;7.248;2024-03-07T09:13:09;14.60;98.60
2935;DHT22;2462;51.456;7.248;2024-03-07T09:15:35;14.60;98.60
2935;DHT22;2462;51.456;7.248;2024-03-07T09:18:02;14.60;98.60
2935;DHT22;2462;51.456;7.248;2024-03-07T09:20:29;14.60;98.70
2935;DHT22;2462;51.456;7.248;2024-03-07T09:22:56;14.70;98.70
2935;DHT22;2462;51.456;7.248;2024-03-07T09:25:22;14.80;98.80
2935;DHT22;2462;51.456;7.248;2024-03-07T09:27:49;14.80;98.80
2935;DHT22;2462;51.456;7.248;2024-03-07T09:30:14;14.90;98.90
2935;DHT22;2462;51.456;7.248;2024-03-07T09:32:44;14.90;98.80
2935;DHT22;2462;51.456;7.248;2024-03-07T09:35:11;15.00;98.90
2935;DHT22;2462;51.456;7.248;2024-03-07T09:37:40;15.10;98.90
2935;DHT22;2462;51.456;7.248;2024-03-07T09:40:07;15.20;98.90
2935;DHT22;2462;51.456;7.248;2024-03-07T09:42:33;15.30;98.90
2935;DHT22;2462;51.456;7.248;2024-03-07T09:45:02;15.40;98.90
2935;DHT22;2462;51.456;7.248;2024-03-07T09:47:29;15.40;98.80
2935;DHT22;2462;51.456;7.248;2024-03-07T09:49:56;15.50;98.90
2935;DHT22;2462;51.456;7.248;2024-03-07T09:52:22;15.60;98.90
2935;DHT22;2462;51.456;7.248;2024-03-07T09:54:49;15.60;98.90
2935;DHT22;2462;51.456;7.248;2024-03-07T09:57:14;15.70;98.90
2935;DHT22;2462;51.456;7.248;2024-03-07T09:59:42;15.80;99.00
2935;DHT22;2462;51.456;7.248;2024-03-07T10:02:11;15.80;99.10
2935;DHT22;2462;51.456;7.248;2024-03-07T10:04:48;15.80;99.10
2935;DHT22;2462;51.456;7.248;2024-03-07T10:07:16;15.90;99.20
2935;DHT22;2462;51.456;7.248;2024-03-07T10:09:43;15.90;99.20
2935;DHT22;2462;51.456;7.248;2024-03-07T10:12:10;16.00;99.30
2935;DHT22;2462;51.456;7.248;2024-03-07T10:14:38;16.00;99.30
2935;DHT22;2462;51.456;7.248;2024-03-07T10:17:04;16.10;99.40
2935;DHT22;2462;51.456;7.248;2024-03-07T10:19:30;16.10;99.40
2935;DHT22;2462;51.456;7.248;2024-03-07T10:21:56;16.20;99.50
2935;DHT22;2462;51.456;7.248;2024-03-07T10:24:27;16.20;99.50
2935;DHT22;2462;51.456;7.248;2024-03-07T10:26:53;16.20;99.40
2935;DHT22;2462;51.456;7.248;2024-03-07T10:29:22;16.20;99.50
2935;DHT22;2462;51.456;7.248;2024-03-07T10:31:48;16.30;99.50
2935;DHT22;2462;51.456;7.248;2024-03-07T10:34:15;16.40;99.70
2935;DHT22;2462;51.456;7.248;2024-03-07T10:36:44;16.50;98.30
2935;DHT22;2462;51.456;7.248;2024-03-07T10:39:11;16.40;95.40
2935;DHT22;2462;51.456;7.248;2024-03-07T10:41:49;16.40;93.70
2935;DHT22;2462;51.456;7.248;2024-03-07T10:44:20;16.10;95.60
2935;DHT22;2462;51.456;7.248;2024-03-07T10:46:52;16.10;96.80
2935;DHT22;2462;51.456;7.248;2024-03-07T10:49:21;16.20;97.20
2935;DHT22;2462;51.456;7.248;2024-03-07T10:52:23;16.30;97.40
2935;DHT22;2462;51.456;7.248;2024-03-07T10:55:12;16.40;97.50
2935;DHT22;2462;51.456;7.248;2024-03-07T10:57:51;16.50;97.50
2935;DHT22;2462;51.456;7.248;2024-03-07T11:00:24;16.60;97.80
2935;DHT22;2462;51.456;7.248;2024-03-07T11:03:01;16.70;97.80
2935;DHT22;2462;51.456;7.248;2024-03-07T11:05:28;16.80;97.90
2935;DHT22;2462;51.456;7.248;2024-03-07T11:08:01;16.90;97.90
2935;DHT22;2462;51.456;7.248;2024-03-07T11:10:37;17.00;97.90
2935;DHT22;2462;51.456;7.248;2024-03-07T11:13:04;17.10;98.10
2935;DHT22;2462;51.456;7.248;2024-03-07T11:15:30;17.20;97.90
2935;DHT22;2462;51.456;7.248;2024-03-07T11:17:56;17.30;97.90
2935;DHT22;2462;51.456;7.248;2024-03-07T11:20:23;17.40;98.20
2935;DHT22;2462;51.456;7.248;2024-03-07T11:22:49;17.40;98.00
2935;DHT22;2462;51.456;7.248;2024-03-07T11:25:18;17.50;98.20
2935;DHT22;2462;51.456;7.248;2024-03-07T11:27:57;17.60;98.30
2935;DHT22;2462;51.456;7.248;2024-03-07T11:30:27;17.70;98.40
2935;DHT22;2462;51.456;7.248;2024-03-07T11:32:54;17.80;98.20
2935;DHT22;2462;51.456;7.248;2024-03-07T11:35:20;17.90;98.30
2935;DHT22;2462;51.456;7.248;2024-03-07T11:37:58;17.70;95.50
2935;DHT22;2462;51.456;7.248;2024-03-07T11:42:51;17.80;97.50
2935;DHT22;2462;51.456;7.248;2024-03-07T11:45:18;17.80;97.00
2935;DHT22;2462;51.456;7.248;2024-03-07T11:47:54;17.90;97.60
2935;DHT22;2462;51.456;7.248;2024-03-07T11:50:25;17.90;95.30
2935;DHT22;2462;51.456;7.248;2024-03-07T11:52:57;17.90;96.40
2935;DHT22;2462;51.456;7.248;2024-03-07T11:55:23;17.90;97.20
2935;DHT22;2462;51.456;7.248;2024-03-07T11:57:49;18.00;97.50
2935;DHT22;2462;51.456;7.248;2024-03-07T12:00:18;17.90;97.60
2935;DHT22;2462;51.456;7.248;2024-03-07T12:02:45;17.90;97.60
2935;DHT22;2462;51.456;7.248;2024-03-07T12:05:11;17.90;97.70
2935;DHT22;2462;51.456;7.248;2024-03-07T12:07:43;17.80;96.70
2935;DHT22;2462;51.456;7.248;2024-03-07T12:10:09;17.70;97.60
2935;DHT22;2462;51.456;7.248;2024-03-07T12:12:38;17.70;97.90
2935;DHT22;2462;51.456;7.248;2024-03-07T12:15:05;17.60;97.80
2935;DHT22;2462;51.456;7.248;2024-03-07T12:17:35;17.60;98.00
2935;DHT22;2462;51.456;7.248;2024-03-07T12:20:01;17.60;97.80
2935;DHT22;2462;51.456;7.248;2024-03-07T12:22:47;17.60;97.90
2935;DHT22;2462;51.456;7.248;2024-03-07T12:25:18;17.60;98.10
2935;DHT22;2462;51.456;7.248;2024-03-07T12:30:34;17.60;98.20
2935;DHT22;2462;51.456;7.248;2024-03-07T12:33:03;17.60;98.10
2935;DHT22;2462;51.456;7.248;2024-03-07T12:35:30;17.60;98.40
2935;DHT22;2462;51.456;7.248;2024-03-07T12:37:56;17.50;98.50
2935;DHT22;2462;51.456;7.248;2024-03-07T12:40:22;17.50;98.40
2935;DHT22;2462;51.456;7.248;2024-03-07T12:42:52;17.40;98.50
2935;DHT22;2462;51.456;7.248;2024-03-07T12:45:21;17.40;98.50
2935;DHT22;2462;51.456;7.248;2024-03-07T12:47:51;17.40;98.60
2935;DHT22;2462;51.456;7.248;2024-03-07T12:50:21;17.30;98.60
2935;DHT22;2462;51.456;7.248;2024-03-07T12:52:48;17.30;98.60
2935;DHT22;2462;51.456;7.248;2024-03-07T12:55:18;17.40;98.70
2935;DHT22;2462;51.456;7.248;2024-03-07T12:57:46;17.30;98.70
2935;DHT22;2462;51.456;7.248;2024-03-07T13:00:12;17.30;98.50
2935;DHT22;2462;51.456;7.248;2024-03-07T13:02:49;17.30;98.40
2935;DHT22;2462;51.456;7.248;2024-03-07T13:05:15;17.40;98.50
2935;DHT22;2462;51.456;7.248;2024-03-07T13:07:51;17.40;98.80
2935;DHT22;2462;51.456;7.248;2024-03-07T13:10:17;17.50;98.70
2935;DHT22;2462;51.456;7.248;2024-03-07T13:12:49;17.50;98.50
2935;DHT22;2462;51.456;7.248;2024-03-07T13:15:18;17.50;98.50
2935;DHT22;2462;51.456;7.248;2024-03-07T13:17:44;17.50;98.80
2935;DHT22;2462;51.456;7.248;2024-03-07T13:20:11;17.40;98.70
2935;DHT22;2462;51.456;7.248;2024-03-07T13:22:44;17.40;98.70
2935;DHT22;2462;51.456;7.248;2024-03-07T13:25:17;17.50;98.80
2935;DHT22;2462;51.456;7.248;2024-03-07T13:27:56;17.60;98.80
2935;DHT22;2462;51.456;7.248;2024-03-07T13:30:23;17.60;98.70
2935;DHT22;2462;51.456;7.248;2024-03-07T13:32:58;17.60;98.60
2935;DHT22;2462;51.456;7.248;2024-03-07T13:35:26;17.60;98.70
2935;DHT22;2462;51.456;7.248;2024-03-07T13:37:52;17.60;98.60
2935;DHT22;2462;51.456;7.248;2024-03-07T13:40:22;17.70;98.60
2935;DHT22;2462;51.456;7.248;2024-03-07T13:42:52;17.60;98.60
2935;DHT22;2462;51.456;7.248;2024-03-07T13:45:22;17.60;98.50
2935;DHT22;2462;51.456;7.248;2024-03-07T13:47:58;17.70;98.50
2935;DHT22;2462;51.456;7.248;2024-03-07T13:50:26;17.60;98.40
2935;DHT22;2462;51.456;7.248;2024-03-07T13:52:54;17.70;98.40
2935;DHT22;2462;51.456;7.248;2024-03-07T13:56:12;17.70;98.30
2935;DHT22;2462;51.456;7.248;2024-03-07T14:02:09;17.70;98.40
2935;DHT22;2462;51.456;7.248;2024-03-07T14:14:10;17.60;98.10
2935;DHT22;2462;51.456;7.248;2024-03-07T14:26:25;17.40;93.10
2935;DHT22;2462;51.456;7.248;2024-03-07T14:28:51;17.30;94.00
2935;DHT22;2462;51.456;7.248;2024-03-07T14:31:18;17.30;95.20
2935;DHT22;2462;51.456;7.248;2024-03-07T14:34:12;17.20;96.10
2935;DHT22;2462;51.456;7.248;2024-03-07T14:36:53;17.20;96.30
2935;DHT22;2462;51.456;7.248;2024-03-07T14:39:23;17.30;96.50
2935;DHT22;2462;51.456;7.248;2024-03-07T14:42:02;17.40;96.40
2935;DHT22;2462;51.456;7.248;2024-03-07T14:44:29;17.40;96.70
2935;DHT22;2462;51.456;7.248;2024-03-07T14:46:59;17.40;96.70
2935;DHT22;2462;51.456;7.248;2024-03-07T14:49:26;17.40;96.90
2935;DHT22;2462;51.456;7.248;2024-03-07T14:51:54;17.40;97.00
2935;DHT22;2462;51.456;7.248;2024-03-07T14:54:21;17.40;96.60
2935;DHT22;2462;51.456;7.248;2024-03-07T14:56:47;17.40;96.70
2935;DHT22;2462;51.456;7.248;2024-03-07T14:59:12;17.30;96.50
2935;DHT22;2462;51.456;7.248;2024-03-07T15:01:38;17.30;95.90
2935;DHT22;2462;51.456;7.248;2024-03-07T15:04:05;17.20;95.70
2935;DHT22;2462;51.456;7.248;2024-03-07T15:06:36;17.10;96.80
2935;DHT22;2462;51.456;7.248;2024-03-07T15:09:02;17.10;97.20
2935;DHT22;2462;51.456;7.248;2024-03-07T15:11:34;17.10;96.90
2935;DHT22;2462;51.456;7.248;2024-03-07T15:14:01;17.20;97.10
2935;DHT22;2462;51.456;7.248;2024-03-07T15:16:29;17.20;96.80
2935;DHT22;2462;51.456;7.248;2024-03-07T15:19:01;17.20;96.90
2935;DHT22;2462;51.456;7.248;2024-03-07T15:21:27;17.20;97.10
2935;DHT22;2462;51.456;7.248;2024-03-07T15:23:54;17.20;97.20
2935;DHT22;2462;51.456;7.248;2024-03-07T15:26:20;17.20;97.30
2935;DHT22;2462;51.456;7.248;2024-03-07T15:28:53;17.20;97.30
2935;DHT22;2462;51.456;7.248;2024-03-07T15:31:20;17.20;97.40
2935;DHT22;2462;51.456;7.248;2024-03-07T15:33:46;17.20;96.90
2935;DHT22;2462;51.456;7.248;2024-03-07T15:36:13;17.30;97.10
2935;DHT22;2462;51.456;7.248;2024-03-07T15:38:38;17.30;97.30
2935;DHT22;2462;51.456;7.248;2024-03-07T15:41:04;17.20;97.40
2935;DHT22;2462;51.456;7.248;2024-03-07T15:43:32;17.20;97.60
2935;DHT22;2462;51.456;7.248;2024-03-07T15:45:57;17.20;97.60
2935;DHT22;2462;51.456;7.248;2024-03-07T15:48:23;17.20;97.40
2935;DHT22;2462;51.456;7.248;2024-03-07T15:50:50;17.20;97.20
2935;DHT22;2462;51.456;7.248;2024-03-07T15:53:17;17.10;97.40
2935;DHT22;2462;51.456;7.248;2024-03-07T15:55:43;17.00;97.70
2935;DHT22;2462;51.456;7.248;2024-03-07T15:58:09;17.00;97.80
2935;DHT22;2462;51.456;7.248;2024-03-07T16:00:36;17.10;97.80
2935;DHT22;2462;51.456;7.248;2024-03-07T16:03:03;17.10;97.70
2935;DHT22;2462;51.456;7.248;2024-03-07T16:05:31;17.00;97.70
2935;DHT22;2462;51.456;7.248;2024-03-07T16:07:58;17.00;97.70
2935;DHT22;2462;51.456;7.248;2024-03-07T16:10:28;17.00;97.60
2935;DHT22;2462;51.456;7.248;2024-03-07T16:13:00;17.00;97.80
2935;DHT22;2462;51.456;7.248;2024-03-07T16:15:27;16.90;97.70
2935;DHT22;2462;51.456;7.248;2024-03-07T16:17:54;17.00;97.70
2935;DHT22;2462;51.456;7.248;2024-03-07T16:20:22;16.90;97.70
2935;DHT22;2462;51.456;7.248;2024-03-07T16:22:49;16.90;97.70
2935;DHT22;2462;51.456;7.248;2024-03-07T16:25:16;16.90;97.70
2935;DHT22;2462;51.456;7.248;2024-03-07T16:27:43;16.90;97.70
2935;DHT22;2462;51.456;7.248;2024-03-07T16:30:20;16.80;97.70
2935;DHT22;2462;51.456;7.248;2024-03-07T16:32:47;16.80;97.60
2935;DHT22;2462;51.456;7.248;2024-03-07T16:35:18;16.80;97.70